Ana Sayfa
METAR-TAF:

METAR-TAF

Havaalanları :

Phnom Penh Uluslararası Havalimanı

Phnom Penh, Kamboçya

Enlem: 11-33N, Boylam: 104-51E, yükseklik: 10 m

Güncel hava durumu gözlemi

Rapor saat 06:30 UTC de 31 dakika önce yapıldı.
Rüzgar güneydan 8 kt, güneydoğu ve güney/güneybatı arasında değişken
Sıcaklık 37°C
Nem 35%
Basınç 1007 hPa
Görüş mesafesi 10 km veya daha fazla
1700 ft yükseklikte parçalı bulutlu

METAR: VDPP 300630Z 17008KT 130V200 9999 SCT017 37/19 Q1007

Saat: 14:01 (07:01 UTC)

Tahmin

Rapor saat 05:00 UTC de 2 saat ve 1 dakika önce yapıldı.
Ayın 30'si saat 06 UTC'den ayın 30'si saat 24 UTC'ye kadar geçerli Tahmin
Rüzgar güney/güneydoğudan 9 kt
Görüş mesafesi 10 km veya daha fazla
1700 ft yükseklikte parçalı bulutlu

TAF: VDPP 300500Z 3006/3024 16009KT 9999 SCT017

4.000'den fazla havaalanı için hava durumu gözlemleri ve tahminleri (METAR ve TAF raporları).

Kullanılabilir istasyonlar harita üzerinde sarı ve kırmızı noktalarla gösterilir.

İstasyonun adını görmek için fareyi noktanın üzerinde gezdirin.

Sonrasında hava gözlem ve tahminlerini görmek için tıklayın.

Haritayı değiştirmek için: yaklaştırmak için siyah artı işaretli yeşil düğmeye ve uzaklaştırmak için de eksi işaretli düğmeye hızla tıklayın; bitişik haritalar için yeşil okları kullanın.


METAR-TAF: